Terminal Aerodrome Forecast
Issued by NWS

Home | Current Version | Previous Version | Text Only | Print | Product List | Glossary On
Versions: 1 2 3 4 5 6 7 8 9 10 11 12 13 14 15 16 17 18 19 20 21 22 23 24
000
FTUS42 KGSP 201122
TAFAND
TAF
KAND 201122Z 2012/2112 04004KT P6SM FEW250
     FM201800 08004KT P6SM FEW250
     FM210000 VRB02KT P6SM FEW200
     FM210800 VRB02KT P6SM SCT010 BKN020=

USA.gov is the U.S. government's official web portal to all federal, state and local government web resources and services.